Terminal Aerodrome Forecast
Issued by NWS Upton, NY

Home | Current Version | Previous Version | Text Only | Print | Product List | Glossary On
Versions: 1 2 3 4 5 6 7 8 9 10 11 12 13 14 15 16 17 18 19 20 21 22 23 24 25 26 27 28 29 30 31 32 33 34
000
FTUS41 KOKX 270000 RRA
TAFISP
TAF
KISP 270000Z 2700/2724 20016G25KT 1/2SM FG OVC003 WS020/22065KT
     FM270200 24006KT 1 1/2SM -SHRA BR BKN003
      TEMPO 2702/2703 SCT003 BKN009
     FM270300 31007KT 4SM -RA BR OVC005
     FM270500 34007KT 4SM -RA BR OVC008
     FM270800 35010KT 4SM -RA BR OVC015
     FM271400 34010KT 6SM -RA BKN015
     FM271800 33007KT P6SM SCT015 BKN080=

USA.gov is the U.S. government's official web portal to all federal, state and local government web resources and services.